首页
METAR-TAF:

METAR-TAF

机场 :

温斯顿-塞勒姆, 北卡罗来纳州, 美国

纬度: 36-08-00N, 经度: 080-13-29W, 海拔: 295米

当前天气观测

该预报发布于20分钟前的15:54 UTC
风速3节,风向多变
温度 29°C
湿度 62%
气压 1015 hPa
能見度: 16.1公里
天空无云

METAR: KINT 041554Z VRB03KT 10SM CLR 29/21 A2998 RMK AO2 SLP137 T02940211

时间: 12:14 (16:14 UTC)

预报

该预报发布于4小时和54分钟前的11:20 UTC
预报有效从04日的 12点(UTC)到 05日的 12点(UTC)
风速8节,风向西南
能見度: 10公里
少量云层高于15000英尺
散云层高于25000英尺
从 04日的 1630点(UTC)
风速10节,风向南转西南,有时为18节阵风
能見度: 10公里
散云层高于4500英尺
多云层高于25000英尺
几率 30%
从 04日的 22点(UTC)到 05日的 01点(UTC)
风速15节,风向西北,有时为25节阵风
多云层高于5000英尺, 积雨云.
阴天层高于11000英尺
雷暴
从 05日的 1000点(UTC)
风速5节,风向南转西南
能見度: 10公里
散云层高于1200英尺
多云层高于20000英尺

TAF: KINT 041120Z 0412/0512 22008KT P6SM FEW150 SCT250 FM041630 20010G18KT P6SM SCT045 BKN250 PROB30 0422/0501 31015G25KT TS BKN050CB OVC110 FM051000 20005KT P6SM SCT012 BKN200

超过4000个机场的气象观测和天气预报(METAR&TAF报告)。

可查询的气象台以黄色和红色小点在地图上表示。

将鼠标移到小点上方,可查看气象台名称。

然后点击查看天气观测和预报。

如需切换地图:点击带黑十字的绿色按钮放大地图;点击带横线的绿色按钮缩小地图;或者点击绿色箭头查看邻近地区的地图。


METAR-TAF: